Time;durP1;ratioP1;P1;durP2;ratioP2;P2;SDS_P1;SDS_P2;PMS_P1;PMS_P2;Temp;Humidity;BMP_temperature;BMP_pressure;BME280_temperature;BME280_humidity;BME280_pressure;Samples;Min_cycle;Max_cycle;Signal;HPM_P1;HPM_P2
2022/05/22 00:00:10;;;;;;;4.82;4.25;;;;;;;14.43;100.00;99558.72;5070497;28;20183;-83
2022/05/22 00:02:37;;;;;;;8.73;5.40;;;;;;;14.36;100.00;99556.47;5074752;28;20569;-82
2022/05/22 00:05:04;;;;;;;6.00;3.97;;;;;;;14.17;100.00;99562.34;5074276;28;20191;-83
2022/05/22 00:07:31;;;;;;;7.10;4.05;;;;;;;14.12;100.00;99553.72;5074691;28;20192;-82
2022/05/22 00:09:57;;;;;;;7.03;4.10;;;;;;;14.07;100.00;99555.03;5060469;28;20216;-82
2022/05/22 00:12:25;;;;;;;6.90;4.35;;;;;;;14.02;100.00;99552.69;5054577;28;20540;-82
2022/05/22 00:14:52;;;;;;;6.20;3.92;;;;;;;14.01;100.00;99558.19;5054181;28;20180;-82
2022/05/22 00:17:18;;;;;;;6.63;3.97;;;;;;;13.89;100.00;99552.69;5053968;28;20225;-83
2022/05/22 00:19:45;;;;;;;4.95;4.43;;;;;;;13.78;100.00;99552.59;5055133;28;20193;-82
2022/05/22 00:22:12;;;;;;;9.73;4.30;;;;;;;13.73;100.00;99546.66;5054429;28;20221;-82
2022/05/22 00:24:39;;;;;;;8.70;4.25;;;;;;;13.80;100.00;99547.09;5054320;28;20713;-83
2022/05/22 00:27:06;;;;;;;10.40;4.40;;;;;;;13.69;100.00;99542.44;5054130;28;20186;-83
2022/05/22 00:29:34;;;;;;;12.05;4.50;;;;;;;13.60;100.00;99548.53;5066982;28;20211;-82
2022/05/22 00:32:01;;;;;;;12.10;4.43;;;;;;;13.65;100.00;99549.91;5073879;28;20188;-82
2022/05/22 00:34:28;;;;;;;12.65;4.30;;;;;;;13.61;100.00;99547.53;5061756;28;20285;-82
2022/05/22 00:36:55;;;;;;;9.35;5.35;;;;;;;13.61;100.00;99542.13;5053538;28;20279;-83
2022/05/22 00:39:21;;;;;;;18.20;5.43;;;;;;;13.63;100.00;99538.31;5063130;28;20199;-82
2022/05/22 00:41:52;;;;;;;7.20;4.30;;;;;;;13.66;100.00;99539.97;5073672;28;20189;-82
2022/05/22 00:44:20;;;;;;;8.65;5.43;;;;;;;13.32;100.00;99543.22;5074013;28;20198;-82
2022/05/22 00:46:48;;;;;;;8.95;5.00;;;;;;;13.60;100.00;99540.41;5074085;28;20533;-82
2022/05/22 00:49:19;;;;;;;7.85;4.90;;;;;;;13.54;100.00;99548.00;5064389;28;20267;-83
2022/05/22 00:51:50;;;;;;;9.60;5.20;;;;;;;13.48;100.00;99540.31;5054068;28;20284;-82
2022/05/22 00:54:21;;;;;;;8.02;5.32;;;;;;;13.34;100.00;99545.81;5053317;28;20634;-82
2022/05/22 00:56:51;;;;;;;6.40;4.82;;;;;;;13.43;100.00;99538.88;5053616;28;20519;-83
2022/05/22 00:59:23;;;;;;;7.05;4.78;;;;;;;13.35;100.00;99540.28;5055283;28;20531;-80
2022/05/22 01:01:53;;;;;;;8.55;5.07;;;;;;;13.38;100.00;99547.31;5053644;28;20179;-82
2022/05/22 01:04:23;;;;;;;6.47;4.50;;;;;;;13.40;100.00;99542.69;5053097;28;20203;-82
2022/05/22 01:06:51;;;;;;;9.20;5.03;;;;;;;13.27;100.00;99544.47;5053577;28;20678;-82
2022/05/22 01:09:18;;;;;;;10.18;5.50;;;;;;;13.31;100.00;99541.47;5062404;28;20226;-83
2022/05/22 01:11:45;;;;;;;9.00;5.95;;;;;;;13.40;100.00;99537.25;5071370;28;20187;-81
2022/05/22 01:14:18;;;;;;;6.95;5.20;;;;;;;13.52;100.00;99536.41;5073517;28;20281;-83
2022/05/22 01:16:45;;;;;;;9.68;4.97;;;;;;;13.61;100.00;99528.59;5073556;28;20284;-82
2022/05/22 01:19:16;;;;;;;4.43;3.78;;;;;;;13.47;100.00;99525.03;5063452;28;20236;-82
2022/05/22 01:21:49;;;;;;;7.78;3.85;;;;;;;13.22;100.00;99525.00;5053337;28;20626;-82
2022/05/22 01:24:16;;;;;;;6.45;3.78;;;;;;;13.24;100.00;99520.38;5062109;28;20652;-82
2022/05/22 01:26:42;;;;;;;6.50;4.57;;;;;;;13.19;100.00;99515.28;5062768;28;20938;-82
2022/05/22 01:29:09;;;;;;;8.07;4.43;;;;;;;13.37;100.00;99507.75;5073345;28;20213;-82
2022/05/22 01:31:36;;;;;;;12.32;4.97;;;;;;;13.51;100.00;99513.03;5073358;28;20221;-81
2022/05/22 01:34:03;;;;;;;10.27;4.90;;;;;;;13.36;100.00;99508.69;5064411;28;21043;-82
2022/05/22 01:36:29;;;;;;;6.68;4.25;;;;;;;13.36;100.00;99506.00;5052780;28;20187;-82
2022/05/22 01:38:57;;;;;;;11.23;5.75;;;;;;;13.37;100.00;99509.59;5052675;28;20221;-82
2022/05/22 01:41:24;;;;;;;9.50;4.95;;;;;;;13.37;100.00;99502.34;5053248;28;20182;-81
2022/05/22 01:43:51;;;;;;;8.02;4.00;;;;;;;13.46;100.00;99509.78;5054026;28;20190;-81
2022/05/22 01:46:17;;;;;;;8.02;4.90;;;;;;;13.18;100.00;99507.28;5053014;28;20926;-82
2022/05/22 01:48:44;;;;;;;8.93;4.80;;;;;;;13.12;100.00;99514.84;5052882;28;20659;-82
2022/05/22 01:51:11;;;;;;;5.45;4.00;;;;;;;13.04;100.00;99509.09;5052534;28;20234;-81
2022/05/22 01:53:37;;;;;;;5.35;4.30;;;;;;;12.84;100.00;99504.22;5055518;28;20675;-82
2022/05/22 01:56:06;;;;;;;9.23;5.75;;;;;;;12.67;100.00;99502.69;5072611;28;20539;-82
2022/05/22 01:58:32;;;;;;;6.38;4.30;;;;;;;12.75;100.00;99499.44;5072625;28;20319;-82
2022/05/22 02:00:59;;;;;;;8.10;5.50;;;;;;;12.96;100.00;99494.38;5072694;28;20535;-82
2022/05/22 02:03:26;;;;;;;9.45;6.13;;;;;;;13.01;100.00;99494.97;5069388;28;20194;-82
2022/05/22 02:05:52;;;;;;;6.93;4.35;;;;;;;12.94;100.00;99495.38;5064980;28;20694;-82
2022/05/22 02:08:24;;;;;;;8.48;4.90;;;;;;;12.97;100.00;99488.88;5068590;28;20647;-81
2022/05/22 02:10:53;;;;;;;9.43;5.00;;;;;;;12.97;100.00;99478.06;5052426;28;20689;-82
2022/05/22 02:13:23;;;;;;;8.77;4.70;;;;;;;12.91;100.00;99479.38;5055712;28;20619;-83
2022/05/22 02:15:51;;;;;;;7.53;4.38;;;;;;;12.73;100.00;99465.31;5072313;28;20383;-83
2022/05/22 02:18:18;;;;;;;4.65;3.80;;;;;;;12.76;100.00;99466.06;5072012;28;20191;-82
2022/05/22 02:20:45;;;;;;;8.18;4.13;;;;;;;12.68;100.00;99472.84;5065285;28;20197;-82
2022/05/22 02:23:12;;;;;;;7.35;4.25;;;;;;;12.56;100.00;99467.44;5052328;28;20549;-83
2022/05/22 02:25:43;;;;;;;11.50;3.88;;;;;;;12.42;100.00;99477.34;5051685;28;20281;-82
2022/05/22 02:28:11;;;;;;;6.28;3.90;;;;;;;12.35;100.00;99480.56;5052303;28;20231;-82
2022/05/22 02:30:40;;;;;;;4.85;3.70;;;;;;;12.49;100.00;99478.66;5055199;28;20311;-83
2022/05/22 02:33:07;;;;;;;7.97;4.03;;;;;;;12.47;100.00;99468.94;5072207;28;20190;-82
2022/05/22 02:35:34;;;;;;;9.00;5.15;;;;;;;12.40;100.00;99473.88;5072004;28;20602;-82
2022/05/22 02:38:00;;;;;;;11.73;4.38;;;;;;;12.37;100.00;99484.00;5072242;28;20195;-82
2022/05/22 02:40:29;;;;;;;6.50;4.40;;;;;;;12.35;100.00;99473.34;5069882;28;21965;-82
2022/05/22 02:42:56;;;;;;;9.93;4.25;;;;;;;12.42;100.00;99476.50;5052113;28;20189;-83
2022/05/22 02:45:25;;;;;;;5.88;4.25;;;;;;;12.35;100.00;99475.19;5052143;28;20208;-82
2022/05/22 02:47:54;;;;;;;20.90;5.00;;;;;;;12.36;100.00;99468.78;5052021;28;20209;-83
2022/05/22 02:50:23;;;;;;;4.70;4.15;;;;;;;12.35;100.00;99456.28;5053525;28;20209;-81
2022/05/22 02:52:50;;;;;;;6.60;4.20;;;;;;;12.16;100.00;99459.34;5071942;28;20194;-82
2022/05/22 02:55:17;;;;;;;7.10;4.28;;;;;;;12.10;100.00;99457.91;5071886;28;20277;-81
2022/05/22 02:57:44;;;;;;;6.40;4.72;;;;;;;12.18;100.00;99458.25;5071850;28;20539;-82
2022/05/22 03:00:14;;;;;;;8.73;4.93;;;;;;;12.34;100.00;99447.28;5069754;28;20650;-81
2022/05/22 03:02:41;;;;;;;7.30;4.28;;;;;;;12.24;100.00;99441.66;5071878;28;20639;-81
2022/05/22 03:05:10;;;;;;;6.05;4.40;;;;;;;12.13;100.00;99446.91;5052548;28;20288;-82
2022/05/22 03:07:37;;;;;;;10.55;8.48;;;;;;;12.15;100.00;99452.22;5051544;28;20205;-82
2022/05/22 03:10:05;;;;;;;5.38;4.32;;;;;;;12.18;100.00;99458.25;5067835;28;20212;-82
2022/05/22 03:12:32;;;;;;;6.28;5.10;;;;;;;12.38;100.00;99447.97;5071838;28;20227;-82
2022/05/22 03:14:59;;;;;;;7.03;4.30;;;;;;;12.52;100.00;99447.88;5071856;28;20276;-81
2022/05/22 03:17:26;;;;;;;5.82;4.78;;;;;;;12.39;100.00;99442.47;5071332;28;20234;-82
2022/05/22 03:19:53;;;;;;;5.30;4.40;;;;;;;12.38;100.00;99446.13;5058689;28;20198;-82
2022/05/22 03:22:22;;;;;;;5.35;4.13;;;;;;;12.25;100.00;99434.41;5055691;28;20616;-82
2022/05/22 03:24:49;;;;;;;4.47;3.78;;;;;;;12.32;100.00;99443.81;5055693;28;20191;-82
2022/05/22 03:27:17;;;;;;;4.28;3.88;;;;;;;12.32;100.00;99435.72;5054968;28;20204;-82
2022/05/22 03:29:45;;;;;;;6.22;3.80;;;;;;;12.27;100.00;99429.78;5068092;28;20237;-82
2022/05/22 03:32:12;;;;;;;5.18;4.05;;;;;;;12.01;100.00;99434.25;5075385;28;20566;-82
2022/05/22 03:34:39;;;;;;;5.25;3.78;;;;;;;12.00;100.00;99432.50;5074885;28;20201;-82
2022/05/22 03:37:06;;;;;;;5.97;4.07;;;;;;;11.95;100.00;99430.09;5075387;28;20596;-83
2022/05/22 03:39:35;;;;;;;5.65;4.35;;;;;;;11.92;100.00;99424.94;5061994;28;20204;-82
2022/05/22 03:42:02;;;;;;;7.72;4.30;;;;;;;12.01;100.00;99434.25;5054907;28;20181;-83
2022/05/22 03:44:30;;;;;;;5.88;3.25;;;;;;;12.23;100.00;99418.34;5055222;28;20292;-82
2022/05/22 03:46:56;;;;;;;6.30;4.18;;;;;;;12.16;100.00;99416.16;5055197;28;20726;-83
2022/05/22 03:49:23;;;;;;;7.50;3.78;;;;;;;12.40;100.00;99419.03;5067807;28;20184;-83
2022/05/22 03:51:50;;;;;;;5.10;3.63;;;;;;;12.38;100.00;99415.56;5074459;28;20244;-82
2022/05/22 03:54:16;;;;;;;5.82;4.28;;;;;;;12.33;100.00;99405.06;5072818;28;20673;-82
2022/05/22 03:56:44;;;;;;;6.03;3.80;;;;;;;12.27;100.00;99409.03;5074250;28;20535;-82
2022/05/22 03:59:11;;;;;;;4.95;3.40;;;;;;;12.28;100.00;99410.78;5074905;28;20203;-83
2022/05/22 04:01:37;;;;;;;5.63;3.88;;;;;;;12.38;100.00;99400.22;5074789;28;20204;-83
2022/05/22 04:04:05;;;;;;;4.20;3.80;;;;;;;12.18;100.00;99400.72;5075068;28;20189;-83
2022/05/22 04:06:31;;;;;;;6.90;3.60;;;;;;;11.94;100.00;99400.53;5071165;28;20285;-82
2022/05/22 04:08:58;;;;;;;3.97;3.35;;;;;;;11.84;100.00;99400.25;5074838;28;20603;-83
2022/05/22 04:11:25;;;;;;;6.43;3.95;;;;;;;11.80;100.00;99396.03;5075565;28;20211;-82
2022/05/22 04:13:53;;;;;;;6.53;4.00;;;;;;;11.92;100.00;99397.06;5074915;28;20204;-83
2022/05/22 04:16:19;;;;;;;3.92;3.33;;;;;;;12.05;100.00;99392.56;5062456;28;20186;-84
2022/05/22 04:18:46;;;;;;;5.25;3.70;;;;;;;12.27;100.00;99389.28;5054671;28;20192;-83
2022/05/22 04:21:14;;;;;;;3.50;3.20;;;;;;;12.25;100.00;99388.53;5054471;28;20201;-83
2022/05/22 04:26:28;;;;;;;5.80;3.90;;;;;;;12.17;100.00;99394.47;5067450;28;20195;-83
2022/05/22 04:28:56;;;;;;;6.25;4.10;;;;;;;12.21;100.00;99389.69;5074188;28;20657;-82
2022/05/22 04:31:23;;;;;;;5.30;3.72;;;;;;;12.48;100.00;99389.63;5071937;28;20200;-83
2022/05/22 04:33:49;;;;;;;4.15;3.72;;;;;;;12.69;100.00;99382.75;5067394;28;20189;-82
2022/05/22 04:36:16;;;;;;;5.35;3.95;;;;;;;12.90;100.00;99390.31;5073888;28;20189;-82
2022/05/22 04:38:43;;;;;;;5.95;4.53;;;;;;;12.75;100.00;99383.28;5073926;28;20624;-82
2022/05/22 04:41:09;;;;;;;5.03;3.88;;;;;;;12.83;100.00;99384.47;5073994;28;20665;-83
2022/05/22 04:43:36;;;;;;;4.78;3.40;;;;;;;12.64;100.00;99384.91;5074190;28;20185;-82
2022/05/22 04:46:06;;;;;;;4.30;3.55;;;;;;;12.65;100.00;99389.34;5073983;28;20548;-82
2022/05/22 04:48:32;;;;;;;6.82;3.72;;;;;;;12.47;100.00;99391.47;5074223;28;20193;-82
2022/05/22 04:50:59;;;;;;;5.70;4.03;;;;;;;12.64;100.00;99389.44;5073557;28;20257;-82
2022/05/22 04:53:29;;;;;;;3.78;3.38;;;;;;;12.63;100.00;99377.78;5065384;28;20188;-82
2022/05/22 04:55:56;;;;;;;4.95;4.20;;;;;;;12.33;100.00;99388.88;5070947;28;20189;-82
2022/05/22 04:58:23;;;;;;;4.45;3.83;;;;;;;12.40;100.00;99384.78;5073583;28;20209;-81
2022/05/22 05:00:49;;;;;;;4.68;3.70;;;;;;;12.44;100.00;99382.75;5073866;28;20620;-82
2022/05/22 05:03:18;;;;;;;6.30;4.35;;;;;;;12.60;100.00;99379.84;5073709;28;20194;-82
2022/05/22 05:05:52;;;;;;;5.57;4.13;;;;;;;12.56;100.00;99378.31;5073670;28;20202;-81
2022/05/22 05:08:19;;;;;;;5.38;4.03;;;;;;;12.78;100.00;99377.69;5073595;28;20213;-81
2022/05/22 05:10:46;;;;;;;6.22;4.35;;;;;;;12.63;100.00;99387.72;5073303;28;20249;-82
2022/05/22 05:13:13;;;;;;;4.30;3.90;;;;;;;12.73;100.00;99384.28;5069955;28;20198;-82
2022/05/22 05:15:40;;;;;;;5.70;4.50;;;;;;;12.87;100.00;99387.84;5070082;28;20199;-80
2022/05/22 05:18:07;;;;;;;4.65;3.80;;;;;;;13.21;100.00;99402.50;5063680;28;20190;-81
2022/05/22 05:20:36;;;;;;;5.22;3.40;;;;;;;13.26;100.00;99404.88;5072928;28;20703;-81
2022/05/22 05:23:04;;;;;;;5.70;4.05;;;;;;;13.29;100.00;99401.97;5073068;28;20629;-80
2022/05/22 05:25:31;;;;;;;5.93;3.60;;;;;;;13.47;100.00;99403.31;5072919;28;20211;-79
2022/05/22 05:27:58;;;;;;;4.63;4.10;;;;;;;13.51;100.00;99418.34;5073133;28;20557;-81
2022/05/22 05:30:24;;;;;;;4.25;3.40;;;;;;;13.78;100.00;99406.47;5072855;28;20196;-81
2022/05/22 05:32:55;;;;;;;5.18;3.90;;;;;;;13.97;100.00;99400.53;5073081;28;20568;-82
2022/05/22 05:35:23;;;;;;;4.95;3.40;;;;;;;14.07;100.00;99411.56;5072591;28;20206;-79
2022/05/22 05:37:51;;;;;;;8.77;5.32;;;;;;;14.06;100.00;99407.09;5072408;28;20205;-80
2022/05/22 05:40:18;;;;;;;6.85;3.70;;;;;;;14.15;100.00;99403.69;5072492;28;20248;-80
2022/05/22 05:42:45;;;;;;;5.13;4.55;;;;;;;14.34;100.00;99422.13;5072059;28;20269;-80
2022/05/22 05:45:13;;;;;;;5.57;4.72;;;;;;;14.49;100.00;99429.06;5072031;28;20206;-80
2022/05/22 05:47:40;;;;;;;4.60;4.20;;;;;;;14.55;100.00;99414.22;5071261;28;20303;-79
2022/05/22 05:50:08;;;;;;;5.72;4.70;;;;;;;14.62;100.00;99425.44;5072417;28;20249;-80
2022/05/22 05:52:35;;;;;;;4.80;4.30;;;;;;;14.92;100.00;99422.19;5071589;28;20690;-80
2022/05/22 05:55:03;;;;;;;5.22;4.57;;;;;;;14.79;100.00;99425.88;5071851;28;20191;-81
2022/05/22 05:57:30;;;;;;;5.32;4.60;;;;;;;14.99;100.00;99424.31;5072104;28;20206;-81
2022/05/22 05:59:57;;;;;;;7.68;4.10;;;;;;;15.24;100.00;99419.63;5072488;28;20189;-82
2022/05/22 06:02:24;;;;;;;5.43;4.32;;;;;;;15.53;100.00;99422.66;5072151;28;20206;-80
2022/05/22 06:04:50;;;;;;;6.55;4.43;;;;;;;15.74;100.00;99425.53;5072572;28;20184;-78
2022/05/22 06:07:17;;;;;;;4.13;3.70;;;;;;;15.91;98.58;99421.41;5072402;28;20543;-80
2022/05/22 06:09:44;;;;;;;8.93;4.75;;;;;;;16.15;95.82;99420.38;5061641;28;20616;-79
2022/05/22 06:12:12;;;;;;;6.05;4.25;;;;;;;16.04;95.39;99411.25;5054792;28;20697;-80
2022/05/22 06:14:39;;;;;;;5.03;4.50;;;;;;;15.89;97.21;99415.25;5065230;28;20228;-78
2022/05/22 06:17:05;;;;;;;7.35;4.53;;;;;;;15.73;98.30;99406.66;5062734;28;20201;-79
2022/05/22 06:22:16;;;;;;;6.35;3.90;;;;;;;15.76;98.36;99407.28;5062559;28;20209;-80
2022/05/22 06:24:43;;;;;;;6.35;4.28;;;;;;;15.71;99.95;99405.91;5055680;28;20189;-82
2022/05/22 06:27:09;;;;;;;4.82;4.32;;;;;;;16.10;96.59;99403.56;5072179;28;20197;-81
2022/05/22 06:29:37;;;;;;;5.10;4.47;;;;;;;16.16;94.78;99401.19;5072121;28;20181;-81
2022/05/22 06:32:05;;;;;;;7.13;4.10;;;;;;;16.32;93.75;99394.47;5071701;28;20229;-82
2022/05/22 06:34:33;;;;;;;6.38;4.53;;;;;;;16.14;94.54;99402.31;5072292;28;20196;-80
2022/05/22 06:37:04;;;;;;;6.82;4.57;;;;;;;16.20;94.97;99401.81;5073141;28;20196;-80
2022/05/22 06:42:16;;;;;;;4.75;3.85;;;;;;;16.43;92.44;99405.28;5092515;28;20539;-82
2022/05/22 06:44:44;;;;;;;6.03;4.28;;;;;;;16.43;92.92;99400.72;5092263;28;20210;-81
2022/05/22 06:47:11;;;;;;;6.00;4.25;;;;;;;16.48;92.78;99397.59;5087022;28;20191;-82
2022/05/22 06:52:25;;;;;;;5.90;3.78;;;;;;;16.71;90.39;99386.59;5071228;28;20235;-80
2022/05/22 06:54:51;;;;;;;4.20;3.80;;;;;;;16.93;89.15;99382.91;5076101;28;20204;-81
2022/05/22 06:57:20;;;;;;;4.22;3.75;;;;;;;16.85;90.43;99389.03;5076120;28;20194;-82
2022/05/22 06:59:49;;;;;;;4.72;3.70;;;;;;;16.98;88.91;99388.78;5076028;28;20295;-81
2022/05/22 07:02:16;;;;;;;6.40;4.45;;;;;;;17.32;85.96;99381.22;5075874;28;20186;-81
2022/05/22 07:04:43;;;;;;;4.75;4.35;;;;;;;17.74;82.53;99374.75;5075855;28;20683;-81
2022/05/22 07:07:09;;;;;;;4.68;3.75;;;;;;;17.92;80.03;99378.53;5075515;28;20200;-81
2022/05/22 07:09:36;;;;;;;5.65;3.40;;;;;;;17.92;80.71;99378.53;5074844;28;20533;-81
2022/05/22 07:12:07;;;;;;;8.82;3.85;;;;;;;18.04;79.64;99384.69;5074979;28;20206;-81
2022/05/22 07:14:34;;;;;;;7.75;3.85;;;;;;;18.10;78.40;99370.50;5075130;28;20270;-81
2022/05/22 07:17:04;;;;;;;5.47;3.85;;;;;;;17.82;81.08;99383.09;5075331;28;20192;-81
2022/05/22 07:19:34;;;;;;;6.13;3.50;;;;;;;18.04;80.42;99369.22;5074393;28;20197;-81
2022/05/22 07:22:01;;;;;;;8.20;3.80;;;;;;;18.49;76.25;99374.06;5073347;28;20188;-81
2022/05/22 07:24:27;;;;;;;4.07;3.38;;;;;;;18.94;72.62;99376.16;5075082;28;20546;-82
2022/05/22 07:26:54;;;;;;;3.67;3.20;;;;;;;19.04;71.89;99376.16;5072980;28;20191;-82
2022/05/22 07:29:20;;;;;;;7.05;5.47;;;;;;;18.64;73.64;99376.38;5074244;28;20197;-82
2022/05/22 07:31:47;;;;;;;3.90;2.90;;;;;;;18.98;71.02;99373.16;5074824;28;20211;-82
2022/05/22 07:34:16;;;;;;;4.93;3.50;;;;;;;18.75;73.05;99368.03;5074142;28;20217;-82
2022/05/22 07:36:43;;;;;;;3.35;3.03;;;;;;;19.09;70.54;99372.97;5073802;28;20241;-81
2022/05/22 07:39:10;;;;;;;4.65;3.25;;;;;;;18.83;70.18;99373.63;5073681;28;20186;-82
2022/05/22 07:41:36;;;;;;;4.40;3.28;;;;;;;19.23;68.16;99367.03;5074325;28;20207;-82
2022/05/22 07:44:03;;;;;;;4.53;3.75;;;;;;;19.67;66.18;99364.50;5074327;28;20213;-81
2022/05/22 07:46:30;;;;;;;4.88;2.90;;;;;;;19.92;64.28;99359.31;5074325;28;20535;-82
2022/05/22 07:48:56;;;;;;;3.13;2.60;;;;;;;19.99;63.90;99353.09;5074169;28;20184;-82
2022/05/22 07:51:26;;;;;;;5.80;3.22;;;;;;;20.22;62.15;99349.03;5074159;28;20232;-81
2022/05/22 07:53:52;;;;;;;4.20;2.90;;;;;;;20.10;63.13;99346.56;5074308;28;20250;-81
2022/05/22 07:56:22;;;;;;;3.40;2.70;;;;;;;20.31;63.17;99348.09;5074500;28;20669;-82
2022/05/22 07:58:49;;;;;;;4.07;2.90;;;;;;;20.57;61.21;99335.34;5060575;28;20194;-81
2022/05/22 08:01:16;;;;;;;3.92;2.80;;;;;;;20.89;59.33;99336.56;5073675;28;20200;-82
2022/05/22 08:03:43;;;;;;;3.00;2.70;;;;;;;20.90;58.90;99338.31;5072856;28;20207;-82
2022/05/22 08:06:09;;;;;;;3.22;2.92;;;;;;;20.95;58.47;99327.72;5074318;28;20431;-82
2022/05/22 08:08:38;;;;;;;3.70;2.60;;;;;;;21.12;57.58;99330.53;5073641;28;20191;-81
2022/05/22 08:11:05;;;;;;;2.90;2.50;;;;;;;21.25;56.65;99325.47;5074097;28;20446;-82
2022/05/22 08:13:32;;;;;;;3.77;2.50;;;;;;;21.35;53.72;99322.63;5073338;28;20462;-82
2022/05/22 08:15:58;;;;;;;4.67;2.90;;;;;;;21.04;55.21;99321.25;5074539;28;20776;-81
2022/05/22 08:18:25;;;;;;;5.10;2.50;;;;;;;20.86;54.39;99320.47;5073118;28;20451;-81
2022/05/22 08:20:53;;;;;;;3.43;2.43;;;;;;;20.74;55.01;99327.25;5074270;28;20437;-82
2022/05/22 08:23:22;;;;;;;3.83;2.33;;;;;;;20.49;55.88;99318.00;5074304;28;20792;-82
2022/05/22 08:25:50;;;;;;;4.63;2.40;;;;;;;20.95;55.48;99316.78;5073938;28;20439;-81
2022/05/22 08:28:17;;;;;;;3.10;2.63;;;;;;;21.28;54.66;99313.31;5074355;28;20499;-81
2022/05/22 08:30:45;;;;;;;7.00;3.03;;;;;;;21.54;54.05;99305.94;5072938;28;20451;-82
2022/05/22 08:33:12;;;;;;;2.73;2.10;;;;;;;21.85;52.89;99308.06;5073674;28;20467;-82
2022/05/22 08:35:41;;;;;;;3.33;2.30;;;;;;;21.81;52.09;99304.78;5073549;28;20438;-82
2022/05/22 08:38:08;;;;;;;2.90;2.00;;;;;;;21.71;50.66;99308.69;5073900;28;20446;-82
2022/05/22 08:40:44;;;;;;;4.50;2.30;;;;;;;21.03;53.53;99311.34;5073695;28;20788;-82
2022/05/22 08:43:16;;;;;;;3.27;1.93;;;;;;;21.59;52.12;99305.41;5074234;28;20770;-81
2022/05/22 08:45:45;;;;;;;5.80;1.93;;;;;;;21.56;50.13;99303.88;5074216;28;21003;-81
2022/05/22 08:48:16;;;;;;;4.53;1.77;;;;;;;21.82;49.29;99305.63;5073525;28;20435;-82
2022/05/22 08:50:46;;;;;;;4.00;2.20;;;;;;;21.77;48.34;99288.84;5072899;28;20488;-81
2022/05/22 08:53:22;;;;;;;3.20;1.70;;;;;;;21.35;49.34;99295.25;5072829;28;20466;-81
2022/05/22 08:58:57;;;;;;;2.87;1.80;;;;;;;21.58;47.02;99288.13;5073663;28;20439;-82
2022/05/22 09:01:33;;;;;;;3.80;1.73;;;;;;;21.80;45.07;99280.31;5073355;28;20478;-82
2022/05/22 09:04:11;;;;;;;5.50;1.60;;;;;;;21.85;45.21;99281.50;5072870;28;20441;-82
2022/05/22 09:06:43;;;;;;;2.50;1.53;;;;;;;21.52;44.43;99279.72;5073083;28;20791;-82
2022/05/22 09:09:09;;;;;;;3.20;1.97;;;;;;;21.58;44.18;99281.81;5073327;28;20431;-82
2022/05/22 09:11:53;;;;;;;2.37;1.40;;;;;;;21.85;43.09;99273.28;5073468;28;20441;-82
2022/05/22 09:14:26;;;;;;;2.27;1.63;;;;;;;21.76;44.28;99271.56;5073386;28;20431;-82
2022/05/22 09:16:59;;;;;;;4.70;3.80;;;;;;;21.65;45.22;99274.63;5072510;28;20454;-82
2022/05/22 09:19:34;;;;;;;2.33;1.67;;;;;;;21.58;45.62;99276.31;5071997;28;20435;-83
2022/05/22 09:22:13;;;;;;;4.00;2.00;;;;;;;21.99;45.60;99263.53;5072625;28;20445;-82
2022/05/22 09:24:51;;;;;;;3.83;1.90;;;;;;;22.32;44.71;99263.56;5073051;28;20423;-83
2022/05/22 09:27:22;;;;;;;2.70;1.80;;;;;;;22.18;44.22;99251.38;5073347;28;20799;-82
2022/05/22 09:30:01;;;;;;;4.73;2.00;;;;;;;22.17;44.01;99246.91;5072466;28;20736;-82
2022/05/22 09:32:43;;;;;;;3.30;2.70;;;;;;;22.02;45.01;99252.22;5072672;28;20469;-82
2022/05/22 09:35:20;;;;;;;4.83;2.03;;;;;;;21.89;45.37;99245.53;5072694;28;20443;-82
2022/05/22 09:38:00;;;;;;;3.03;2.00;;;;;;;21.73;45.39;99239.03;5071856;28;20923;-82
2022/05/22 09:40:34;;;;;;;4.50;1.97;;;;;;;21.78;44.91;99233.88;5072519;28;20905;-83
2022/05/22 09:43:24;;;;;;;3.23;2.10;;;;;;;22.33;43.37;99232.34;5072716;28;20474;-83
2022/05/22 09:46:06;;;;;;;5.00;1.80;;;;;;;21.94;39.49;99226.72;5072818;28;20476;-83
2022/05/22 09:48:59;;;;;;;4.10;2.00;;;;;;;22.10;40.47;99221.22;5072651;28;20431;-82
2022/05/22 09:51:33;;;;;;;5.03;1.93;;;;;;;22.47;40.76;99222.56;5072462;28;20488;-83
2022/05/22 09:54:18;;;;;;;6.33;2.40;;;;;;;23.05;40.16;99210.38;5072951;28;20797;-83
2022/05/22 09:56:53;;;;;;;2.30;1.67;;;;;;;23.35;39.31;99202.31;5082718;28;20437;-82
2022/05/22 09:59:37;;;;;;;6.77;2.20;;;;;;;23.41;38.27;99193.38;5081538;28;20423;-82
2022/05/22 10:02:14;;;;;;;2.13;1.50;;;;;;;23.80;37.90;99203.41;5071681;28;20437;-83
2022/05/22 10:05:04;;;;;;;2.23;1.40;;;;;;;23.64;38.54;99192.53;5071352;28;20446;-83
2022/05/22 10:07:37;;;;;;;2.10;1.60;;;;;;;23.82;38.35;99190.34;5072518;28;20431;-82
2022/05/22 10:10:12;;;;;;;3.60;1.73;;;;;;;23.88;37.80;99186.00;5071501;28;20437;-83
2022/05/22 10:12:49;;;;;;;2.50;1.70;;;;;;;23.64;38.47;99178.78;5052321;28;20470;-82
2022/05/22 10:15:46;;;;;;;2.07;1.87;;;;;;;23.87;38.01;99176.88;5070177;28;20927;-83
2022/05/22 10:18:43;;;;;;;2.10;1.80;;;;;;;23.86;36.22;99161.44;5071676;28;20431;-83
2022/05/22 10:21:19;;;;;;;2.47;1.60;;;;;;;24.14;35.01;99167.19;5071435;28;21136;-82
2022/05/22 10:24:04;;;;;;;5.33;2.07;;;;;;;24.50;34.26;99161.00;5071469;28;20865;-82
2022/05/22 10:26:43;;;;;;;2.83;1.70;;;;;;;24.67;34.53;99150.66;5071756;28;20789;-83
2022/05/22 10:29:18;;;;;;;2.17;1.60;;;;;;;24.30;34.63;99148.81;5071595;28;20427;-83
2022/05/22 10:31:54;;;;;;;2.57;1.23;;;;;;;24.51;34.63;99134.31;5072322;28;20894;-82
2022/05/22 10:34:33;;;;;;;2.40;1.30;;;;;;;24.48;35.31;99149.31;5071951;28;20556;-83
2022/05/22 10:37:08;;;;;;;1.87;1.40;;;;;;;23.70;36.93;99148.66;5071884;28;20423;-83
2022/05/22 10:39:34;;;;;;;1.80;1.30;;;;;;;23.85;36.32;99143.22;5071270;28;20441;-82
2022/05/22 10:44:53;;;;;;;4.60;2.87;;;;;;;24.02;36.58;99121.94;5071741;28;20854;-81
2022/05/22 10:47:27;;;;;;;2.40;1.53;;;;;;;24.33;36.77;99130.03;5072157;28;20411;-83
2022/05/22 10:49:55;;;;;;;2.90;1.70;;;;;;;24.38;35.29;99132.22;5071851;28;20426;-83
2022/05/22 10:52:24;;;;;;;1.77;1.20;;;;;;;24.14;34.31;99141.59;5071318;28;20485;-83
2022/05/22 10:54:54;;;;;;;3.97;1.50;;;;;;;24.20;33.65;99137.25;5070653;28;20441;-82
2022/05/22 10:57:23;;;;;;;2.40;1.23;;;;;;;23.86;33.91;99147.69;5071612;28;20439;-83
2022/05/22 10:59:50;;;;;;;1.80;1.57;;;;;;;24.32;34.12;99143.97;5071305;28;20439;-82
2022/05/22 11:02:22;;;;;;;2.20;1.50;;;;;;;24.78;34.00;99146.53;5071560;28;20433;-82
2022/05/22 11:04:51;;;;;;;2.33;1.50;;;;;;;24.57;34.37;99138.22;5071693;28;20442;-82
2022/05/22 11:07:30;;;;;;;1.90;1.17;;;;;;;24.15;34.39;99132.31;5071823;28;20453;-82
2022/05/22 11:09:58;;;;;;;2.50;1.30;;;;;;;24.24;34.21;99130.28;5070337;28;20530;-82
2022/05/22 11:12:27;;;;;;;2.07;1.67;;;;;;;24.60;33.57;99130.41;5071378;28;20909;-82
2022/05/22 11:15:05;;;;;;;1.43;1.20;;;;;;;24.60;33.76;99119.41;5071863;28;20449;-82
2022/05/22 11:17:32;;;;;;;2.67;1.33;;;;;;;24.64;34.57;99115.22;5071448;28;20489;-81
2022/05/22 11:20:06;;;;;;;2.57;2.00;;;;;;;24.67;34.50;99109.38;5071087;28;20461;-82
2022/05/22 11:22:39;;;;;;;1.70;1.30;;;;;;;24.61;35.03;99090.00;5071921;28;20900;-82
2022/05/22 11:25:28;;;;;;;2.57;1.43;;;;;;;24.73;35.05;99083.78;5071300;28;20525;-82
2022/05/22 11:28:05;;;;;;;3.27;1.57;;;;;;;24.83;35.29;99074.38;5070543;28;20924;-82
2022/05/22 11:30:43;;;;;;;4.33;1.70;;;;;;;24.90;34.72;99070.66;5071691;28;20834;-83
2022/05/22 11:33:20;;;;;;;3.33;1.40;;;;;;;24.88;35.37;99060.91;5070845;28;20553;-82
2022/05/22 11:35:56;;;;;;;6.50;1.73;;;;;;;24.73;35.88;99056.28;5067975;28;20434;-82
2022/05/22 11:38:41;;;;;;;1.70;1.30;;;;;;;25.45;33.96;99057.25;5071059;28;20426;-82
2022/05/22 11:41:21;;;;;;;2.70;1.40;;;;;;;25.69;32.78;99058.75;5074740;28;20788;-82
2022/05/22 11:44:06;;;;;;;2.57;1.40;;;;;;;25.51;32.08;99059.22;5074538;28;20924;-82
2022/05/22 11:46:45;;;;;;;2.80;1.50;;;;;;;25.54;32.52;99042.28;5074552;28;20922;-83
2022/05/22 11:49:27;;;;;;;2.30;1.10;;;;;;;25.53;33.26;99039.72;5074998;28;20445;-83
2022/05/22 11:52:53;;;;;;;2.10;1.50;;;;;;;25.35;33.91;99043.00;5074646;28;20884;-82
2022/05/22 11:55:10;;;;;;;2.23;1.60;;;;;;;25.08;33.53;99041.84;5054654;28;20443;-83
2022/05/22 11:57:41;;;;;;;6.30;4.70;;;;;;;25.32;32.49;99038.69;5061219;28;20814;-82